Time;durP1;ratioP1;P1;durP2;ratioP2;P2;SDS_P1;SDS_P2;PMS_P1;PMS_P2;Temp;Humidity;BMP_temperature;BMP_pressure;BME280_temperature;BME280_humidity;BME280_pressure;Samples;Min_cycle;Max_cycle;Signal;HPM_P1;HPM_P2
2020/12/13 00:02:11;;;;;;;46.95;17.05;;;8.10;97.60;;;;;;4874299;29;20056;-79
2020/12/13 00:04:38;;;;;;;49.58;17.25;;;8.10;97.60;;;;;;4861854;29;20040;-79
2020/12/13 00:07:06;;;;;;;41.97;16.80;;;8.10;97.60;;;;;;4866359;29;20056;-79
2020/12/13 00:09:33;;;;;;;45.00;17.05;;;8.10;97.60;;;;;;4858684;29;20032;-79
2020/12/13 00:12:05;;;;;;;44.58;16.67;;;8.10;97.60;;;;;;4894745;29;20041;-79
2020/12/13 00:14:32;;;;;;;47.03;17.17;;;8.10;97.60;;;;;;4880439;29;20052;-79
2020/12/13 00:16:59;;;;;;;54.13;17.80;;;8.10;97.60;;;;;;4894224;29;20052;-79
2020/12/13 00:19:26;;;;;;;66.72;23.05;;;8.10;97.60;;;;;;4869416;29;20036;-79
2020/12/13 00:21:54;;;;;;;57.83;20.95;;;8.10;97.80;;;;;;4882255;29;20481;-79
2020/12/13 00:24:21;;;;;;;65.55;22.25;;;8.00;97.40;;;;;;4882063;29;20043;-79
2020/12/13 00:26:48;;;;;;;64.38;23.02;;;8.00;97.40;;;;;;4866587;29;20035;-79
2020/12/13 00:29:16;;;;;;;112.03;31.67;;;8.00;97.40;;;;;;4879348;29;20041;-79
2020/12/13 00:31:43;;;;;;;75.97;26.00;;;8.00;97.40;;;;;;4895749;29;20043;-79
2020/12/13 00:34:14;;;;;;;85.88;31.27;;;8.00;97.40;;;;;;4869322;29;20040;-80
2020/12/13 00:36:41;;;;;;;99.38;30.08;;;7.90;97.40;;;;;;4864669;29;20044;-78
2020/12/13 00:39:07;;;;;;;76.93;25.98;;;7.90;97.40;;;;;;4869428;29;20555;-79
2020/12/13 00:41:34;;;;;;;90.88;27.90;;;7.90;97.40;;;;;;4878210;29;20052;-79
2020/12/13 00:44:01;;;;;;;68.43;23.30;;;7.90;97.40;;;;;;4881725;29;20052;-79
2020/12/13 00:46:27;;;;;;;55.05;21.48;;;7.90;97.40;;;;;;4895887;29;20055;-81
2020/12/13 00:48:54;;;;;;;75.03;27.13;;;7.80;97.70;;;;;;4870674;29;20040;-80
2020/12/13 00:51:27;;;;;;;76.90;26.90;;;7.80;97.40;;;;;;4866309;29;20059;-82
2020/12/13 00:53:56;;;;;;;;;;;7.90;97.70;;;;;;4867381;29;20051;-81
2020/12/13 00:56:22;;;;;;;105.65;33.95;;;7.80;97.40;;;;;;4881116;29;19950;-79
2020/12/13 00:58:49;;;;;;;75.47;27.92;;;7.80;97.40;;;;;;4883835;29;20047;-79
2020/12/13 01:01:16;;;;;;;90.75;29.08;;;7.80;97.40;;;;;;4870084;29;20045;-79
2020/12/13 01:03:42;;;;;;;77.63;27.92;;;7.80;97.50;;;;;;4860780;29;20063;-80
2020/12/13 01:06:09;;;;;;;68.85;27.52;;;7.80;97.50;;;;;;4879121;29;20381;-79
2020/12/13 01:08:35;;;;;;;92.13;31.13;;;7.80;97.50;;;;;;4888214;29;20044;-79
2020/12/13 01:11:02;;;;;;;75.22;27.35;;;7.70;97.50;;;;;;4871752;29;20036;-79
2020/12/13 01:13:29;;;;;;;69.85;27.27;;;7.70;97.50;;;;;;4883272;29;20052;-79
2020/12/13 01:15:56;;;;;;;83.30;28.30;;;7.70;97.50;;;;;;4870341;29;20499;-79
2020/12/13 01:18:22;;;;;;;73.60;27.15;;;7.70;97.50;;;;;;4905473;29;20176;-79
2020/12/13 01:20:48;;;;;;;84.68;30.50;;;7.70;97.50;;;;;;4902764;29;20048;-79
2020/12/13 01:23:15;;;;;;;77.78;27.83;;;7.70;97.50;;;;;;4884657;29;20053;-79
2020/12/13 01:25:41;;;;;;;73.88;26.30;;;7.70;97.50;;;;;;4900813;29;20063;-79
2020/12/13 01:28:08;;;;;;;94.00;29.83;;;7.70;97.50;;;;;;4882205;29;20055;-79
2020/12/13 01:30:34;;;;;;;70.30;26.02;;;7.70;97.50;;;;;;4873323;29;20549;-79
2020/12/13 01:33:01;;;;;;;76.18;26.25;;;7.70;97.50;;;;;;4897980;29;20048;-79
2020/12/13 01:35:27;;;;;;;67.50;24.42;;;7.70;97.50;;;;;;4839066;29;20476;-79
2020/12/13 01:37:54;;;;;;;77.03;27.08;;;7.70;97.50;;;;;;4880211;29;20067;-79
2020/12/13 01:40:20;;;;;;;82.28;27.17;;;7.70;97.50;;;;;;4897968;29;20079;-79
2020/12/13 01:42:47;;;;;;;63.67;22.73;;;7.70;97.50;;;;;;4874201;29;20044;-79
2020/12/13 01:45:18;;;;;;;59.17;23.40;;;7.80;97.50;;;;;;4873988;29;20048;-79
2020/12/13 01:47:48;;;;;;;79.45;26.30;;;7.70;97.50;;;;;;4901524;29;20606;-79
2020/12/13 01:50:26;;;;;;;46.63;17.55;;;7.80;97.50;;;;;;4886614;29;20032;-79
2020/12/13 01:53:12;;;;;;;74.15;24.50;;;7.80;97.50;;;;;;4894937;29;20032;-79
2020/12/13 01:55:40;;;;;;;83.03;26.77;;;7.80;97.50;;;;;;4890694;29;20055;-79
2020/12/13 01:58:13;;;;;;;68.93;24.15;;;7.70;97.50;;;;;;4878678;29;20047;-79
2020/12/13 02:00:43;;;;;;;112.15;34.40;;;7.80;97.50;;;;;;4897501;29;20051;-79
2020/12/13 02:03:11;;;;;;;83.28;27.85;;;7.80;97.40;;;;;;4860633;29;20059;-79
2020/12/13 02:05:39;;;;;;;69.47;25.38;;;7.70;97.40;;;;;;4895998;29;20067;-79
2020/12/13 02:08:06;;;;;;;69.45;25.60;;;7.70;97.40;;;;;;4902099;29;20041;-79
2020/12/13 02:10:34;;;;;;;70.20;24.90;;;7.70;97.40;;;;;;4891568;29;20055;-79
2020/12/13 02:13:01;;;;;;;59.20;21.45;;;7.70;97.40;;;;;;4901499;29;20581;-80
2020/12/13 02:15:27;;;;;;;68.97;22.75;;;7.70;97.40;;;;;;4884244;29;20033;-79
2020/12/13 02:17:55;;;;;;;63.60;21.92;;;7.70;97.40;;;;;;4885045;29;20053;-80
2020/12/13 02:20:21;;;;;;;62.17;23.45;;;7.70;97.50;;;;;;4887195;29;20052;-79
2020/12/13 02:22:49;;;;;;;72.78;23.95;;;7.70;97.40;;;;;;4892233;29;20048;-79
2020/12/13 02:25:21;;;;;;;78.43;25.58;;;7.70;97.60;;;;;;4894580;29;21642;-79
2020/12/13 02:27:49;;;;;;;65.57;23.42;;;7.80;97.50;;;;;;4883018;29;20051;-79
2020/12/13 02:30:16;;;;;;;62.35;23.27;;;7.70;97.40;;;;;;4863679;29;20052;-79
2020/12/13 02:32:43;;;;;;;68.22;24.05;;;7.80;97.50;;;;;;4883333;29;20051;-79
2020/12/13 02:35:11;;;;;;;70.85;23.60;;;7.80;97.40;;;;;;4884096;29;20381;-79
2020/12/13 02:37:37;;;;;;;63.55;23.13;;;7.80;97.40;;;;;;4851985;29;20044;-79
2020/12/13 02:40:04;;;;;;;64.88;23.00;;;7.80;97.40;;;;;;4862710;29;20377;-80
2020/12/13 02:42:34;;;;;;;64.10;22.25;;;7.80;97.40;;;;;;4865786;29;20068;-79
2020/12/13 02:45:01;;;;;;;100.68;23.70;;;7.80;97.40;;;;;;4878075;29;20036;-80
2020/12/13 02:47:28;;;;;;;90.13;24.70;;;7.90;97.40;;;;;;4888283;29;20068;-79
2020/12/13 02:49:54;;;;;;;68.05;23.02;;;7.80;97.40;;;;;;4850440;29;20064;-79
2020/12/13 02:52:21;;;;;;;64.38;21.33;;;7.80;97.30;;;;;;4875459;29;20040;-80
2020/12/13 02:54:47;;;;;;;69.63;22.58;;;7.90;97.40;;;;;;4861617;29;20044;-79
2020/12/13 02:57:13;;;;;;;85.20;23.00;;;7.90;97.40;;;;;;4877031;29;20045;-79
2020/12/13 02:59:40;;;;;;;77.13;22.23;;;7.90;97.40;;;;;;4882071;29;20067;-79
2020/12/13 03:02:06;;;;;;;76.30;22.60;;;7.90;97.30;;;;;;4851377;29;20048;-78
2020/12/13 03:04:33;;;;;;;94.10;22.73;;;7.90;97.30;;;;;;4845881;29;20056;-78
2020/12/13 03:06:59;;;;;;;71.70;21.38;;;7.90;97.30;;;;;;4895164;29;20059;-78
2020/12/13 03:09:26;;;;;;;62.83;22.02;;;7.90;97.30;;;;;;4862681;29;20051;-78
2020/12/13 03:11:52;;;;;;;85.15;22.30;;;7.90;97.30;;;;;;4861314;29;20477;-78
2020/12/13 03:14:19;;;;;;;99.90;21.52;;;7.90;97.30;;;;;;4878142;29;20060;-78
2020/12/13 03:16:46;;;;;;;128.55;21.38;;;7.90;97.30;;;;;;4869537;29;20040;-78
2020/12/13 03:19:12;;;;;;;134.55;23.80;;;7.90;97.30;;;;;;4895224;29;20049;-78
2020/12/13 03:21:39;;;;;;;71.30;21.25;;;7.90;97.30;;;;;;4869774;29;20424;-78
2020/12/13 03:24:05;;;;;;;129.90;20.83;;;8.00;97.30;;;;;;4886610;29;20063;-79
2020/12/13 03:26:33;;;;;;;153.40;21.35;;;8.00;97.30;;;;;;4852424;29;20052;-78
2020/12/13 03:28:59;;;;;;;72.45;20.73;;;8.00;97.30;;;;;;4851537;29;20051;-78
2020/12/13 03:31:26;;;;;;;117.65;21.73;;;8.00;97.30;;;;;;4850364;29;20079;-78
2020/12/13 03:33:52;;;;;;;114.82;21.20;;;8.00;97.30;;;;;;4881272;29;20045;-79
2020/12/13 03:36:19;;;;;;;192.10;22.70;;;8.10;97.30;;;;;;4875710;29;20025;-79
2020/12/13 03:38:45;;;;;;;297.67;25.33;;;8.00;97.30;;;;;;4897384;29;20047;-82
2020/12/13 03:41:11;;;;;;;124.13;19.92;;;8.00;97.30;;;;;;4865773;29;20056;-83
2020/12/13 03:43:38;;;;;;;131.63;21.25;;;8.00;97.30;;;;;;4878349;29;20507;-78
2020/12/13 03:46:04;;;;;;;127.07;19.60;;;8.00;97.20;;;;;;4895208;29;20073;-78
2020/12/13 03:48:31;;;;;;;113.57;21.55;;;8.10;97.30;;;;;;4880948;29;20045;-78
2020/12/13 03:50:57;;;;;;;112.05;21.55;;;8.10;97.30;;;;;;4856685;29;20036;-78
2020/12/13 03:53:23;;;;;;;73.72;19.13;;;8.10;97.30;;;;;;4863706;29;20036;-78
2020/12/13 03:55:50;;;;;;;73.78;19.58;;;8.10;97.20;;;;;;4840881;29;20062;-78
2020/12/13 03:58:16;;;;;;;124.90;21.65;;;8.10;97.30;;;;;;4850937;29;20487;-78
2020/12/13 04:00:43;;;;;;;136.80;21.80;;;8.10;97.20;;;;;;4877177;29;20053;-78
2020/12/13 04:03:09;;;;;;;179.77;22.42;;;8.10;97.20;;;;;;4888064;29;20559;-78
2020/12/13 04:05:36;;;;;;;64.35;19.77;;;8.10;97.20;;;;;;4878608;29;20041;-78
2020/12/13 04:08:02;;;;;;;101.70;21.35;;;8.10;97.50;;;;;;4888669;29;20053;-78
2020/12/13 04:10:29;;;;;;;130.13;22.00;;;8.10;97.20;;;;;;4860031;29;20048;-78
2020/12/13 04:12:55;;;;;;;154.85;20.70;;;8.10;97.20;;;;;;4862487;29;20412;-78
2020/12/13 04:15:22;;;;;;;200.65;21.77;;;8.10;97.20;;;;;;4891874;29;20041;-78
2020/12/13 04:17:49;;;;;;;93.10;20.70;;;8.10;97.30;;;;;;4880695;29;20048;-78
2020/12/13 04:20:15;;;;;;;63.58;20.55;;;8.10;97.50;;;;;;4881771;29;20062;-78
2020/12/13 04:22:42;;;;;;;126.20;18.35;;;8.20;97.20;;;;;;4877566;29;20059;-78
2020/12/13 04:25:09;;;;;;;97.97;18.63;;;8.20;97.20;;;;;;4881811;29;20044;-78
2020/12/13 04:27:35;;;;;;;202.52;23.08;;;8.20;97.20;;;;;;4867876;29;20407;-78
2020/12/13 04:30:04;;;;;;;106.53;22.33;;;8.10;97.20;;;;;;4881918;29;20055;-78
2020/12/13 04:32:30;;;;;;;122.47;18.75;;;8.20;97.30;;;;;;4889837;29;20037;-78
2020/12/13 04:34:57;;;;;;;93.50;21.20;;;8.20;97.20;;;;;;4862767;29;20041;-78
2020/12/13 04:37:24;;;;;;;79.88;21.70;;;8.10;97.20;;;;;;4894064;29;20393;-78
2020/12/13 04:39:53;;;;;;;123.95;21.67;;;8.20;97.20;;;;;;4865108;29;20396;-78
2020/12/13 04:42:24;;;;;;;98.07;21.52;;;8.20;97.20;;;;;;4874234;29;20400;-78
2020/12/13 04:44:51;;;;;;;88.70;20.90;;;8.20;97.20;;;;;;4889541;29;20040;-78
2020/12/13 04:47:20;;;;;;;167.00;23.27;;;8.20;97.20;;;;;;4897472;29;20043;-78
2020/12/13 04:49:48;;;;;;;232.77;25.65;;;8.20;97.30;;;;;;4896879;29;20044;-78
2020/12/13 04:52:15;;;;;;;130.07;24.23;;;8.20;97.20;;;;;;4879486;29;20395;-78
2020/12/13 04:54:50;;;;;;;133.57;22.05;;;8.20;97.20;;;;;;4868473;29;20388;-78
2020/12/13 04:57:18;;;;;;;150.57;24.20;;;8.20;97.20;;;;;;4869182;29;20507;-78
2020/12/13 04:59:49;;;;;;;102.45;22.33;;;8.20;97.20;;;;;;4875748;29;20071;-78
2020/12/13 05:02:17;;;;;;;112.20;20.02;;;8.20;97.20;;;;;;4891815;29;20040;-76
2020/12/13 05:04:45;;;;;;;153.93;25.88;;;8.20;97.20;;;;;;4896364;29;20037;-76
2020/12/13 05:07:12;;;;;;;81.53;21.45;;;8.20;97.20;;;;;;4868433;29;20396;-76
2020/12/13 05:09:49;;;;;;;92.22;21.33;;;8.20;97.20;;;;;;4880956;29;20036;-76
2020/12/13 05:12:15;;;;;;;113.68;24.35;;;8.20;97.20;;;;;;4898533;29;20396;-76
2020/12/13 05:14:47;;;;;;;183.82;27.35;;;8.20;97.10;;;;;;4896535;29;20052;-76
2020/12/13 05:17:14;;;;;;;87.88;25.67;;;8.20;97.10;;;;;;4891982;29;20056;-76
2020/12/13 05:19:43;;;;;;;70.18;20.95;;;8.20;97.20;;;;;;4894808;29;20057;-76
2020/12/13 05:22:10;;;;;;;88.90;23.13;;;8.20;97.20;;;;;;4904579;29;20067;-76
2020/12/13 05:24:37;;;;;;;70.93;20.52;;;8.20;97.10;;;;;;4883908;29;20138;-77
2020/12/13 05:27:06;;;;;;;68.93;20.80;;;8.20;97.20;;;;;;4903413;29;20036;-77
2020/12/13 05:29:35;;;;;;;69.38;19.95;;;8.20;97.20;;;;;;4874500;29;20044;-76
2020/12/13 05:32:24;;;;;;;68.13;21.13;;;8.20;97.10;;;;;;4898982;29;20387;-77
2020/12/13 05:34:52;;;;;;;76.13;22.05;;;8.30;97.20;;;;;;4898579;29;20048;-77
2020/12/13 05:37:18;;;;;;;66.55;21.25;;;8.20;97.20;;;;;;4903477;29;20483;-77
2020/12/13 05:39:49;;;;;;;59.20;19.33;;;8.20;97.20;;;;;;4883904;29;20048;-77
2020/12/13 05:42:36;;;;;;;78.28;25.10;;;8.20;97.20;;;;;;4875573;29;20059;-77
2020/12/13 05:52:52;;;;;;;62.55;22.42;;;8.20;97.20;;;;;;4887201;29;20053;-77
2020/12/13 05:55:19;;;;;;;54.10;20.67;;;8.20;97.20;;;;;;4903074;29;20067;-77
2020/12/13 05:57:49;;;;;;;54.05;19.85;;;8.20;97.30;;;;;;4858396;29;20376;-77
2020/12/13 06:00:17;;;;;;;65.22;22.15;;;8.20;97.30;;;;;;4879265;29;20051;-77
2020/12/13 06:02:49;;;;;;;40.25;16.48;;;8.30;97.30;;;;;;4876565;29;20045;-76
2020/12/13 06:05:18;;;;;;;50.65;18.95;;;8.30;97.30;;;;;;4871017;29;20044;-77
2020/12/13 06:07:50;;;;;;;69.90;22.67;;;8.30;97.30;;;;;;4890272;29;20040;-76
2020/12/13 06:10:24;;;;;;;90.70;38.15;;;8.30;97.30;;;;;;4869075;29;20048;-77
2020/12/13 06:13:01;;;;;;;58.83;24.30;;;8.30;97.30;;;;;;4861086;29;20778;-77
2020/12/13 06:15:29;;;;;;;55.47;22.92;;;8.30;97.30;;;;;;4876842;29;20045;-77
2020/12/13 06:17:56;;;;;;;52.83;20.98;;;8.30;97.30;;;;;;4891899;29;20044;-77
2020/12/13 06:20:23;;;;;;;71.97;23.83;;;8.40;97.40;;;;;;4852705;29;20496;-77
2020/12/13 06:22:51;;;;;;;73.28;24.40;;;8.40;97.30;;;;;;4885432;29;20403;-76
2020/12/13 06:25:21;;;;;;;74.03;25.45;;;8.40;97.30;;;;;;4901600;29;20480;-77
2020/12/13 06:27:49;;;;;;;77.18;27.60;;;8.40;97.30;;;;;;4867030;29;20052;-77
2020/12/13 06:30:17;;;;;;;80.30;28.67;;;8.40;97.30;;;;;;4897045;29;20514;-77
2020/12/13 06:32:51;;;;;;;62.40;23.45;;;8.40;97.30;;;;;;4898867;29;20044;-77
2020/12/13 06:35:19;;;;;;;64.43;23.92;;;8.40;97.40;;;;;;4871332;29;20047;-77
2020/12/13 06:37:46;;;;;;;64.95;23.70;;;8.40;97.40;;;;;;4891219;29;20047;-77
2020/12/13 06:40:20;;;;;;;70.22;25.50;;;8.40;97.40;;;;;;4835714;29;20377;-77
2020/12/13 06:42:48;;;;;;;61.40;23.83;;;8.40;97.40;;;;;;4849638;29;20423;-77
2020/12/13 06:45:16;;;;;;;62.38;21.80;;;8.40;97.40;;;;;;4874375;29;20044;-77
2020/12/13 06:47:44;;;;;;;74.65;26.08;;;8.40;97.60;;;;;;4875867;29;20037;-77
2020/12/13 06:50:22;;;;;;;71.90;25.00;;;8.40;97.40;;;;;;4897400;29;20044;-77
2020/12/13 06:52:53;;;;;;;62.20;22.33;;;8.40;97.40;;;;;;4900871;29;20029;-76
2020/12/13 06:55:33;;;;;;;58.72;23.13;;;8.40;97.60;;;;;;4898905;29;20048;-77
2020/12/13 06:58:04;;;;;;;53.20;21.80;;;8.40;97.40;;;;;;4891832;29;20041;-76
2020/12/13 07:00:50;;;;;;;60.28;22.52;;;8.40;97.40;;;;;;4864859;29;20042;-77
2020/12/13 07:03:26;;;;;;;69.80;24.27;;;8.40;97.40;;;;;;4875442;29;20596;-76
2020/12/13 07:05:58;;;;;;;73.90;24.05;;;8.40;97.40;;;;;;4895529;29;20048;-77
2020/12/13 07:08:26;;;;;;;56.10;22.57;;;8.40;97.40;;;;;;4835729;29;20507;-76
2020/12/13 07:10:53;;;;;;;68.20;25.10;;;8.40;97.70;;;;;;4851291;29;20304;-76
2020/12/13 07:13:23;;;;;;;72.47;24.88;;;8.50;97.40;;;;;;4880886;29;20721;-77
2020/12/13 07:15:52;;;;;;;66.70;24.30;;;8.40;97.40;;;;;;4897325;29;20041;-77
2020/12/13 07:18:21;;;;;;;43.28;19.05;;;8.50;97.40;;;;;;4903613;29;20035;-76
2020/12/13 07:20:48;;;;;;;57.25;23.50;;;8.50;97.40;;;;;;4913837;29;20044;-77
2020/12/13 07:23:14;;;;;;;80.18;26.38;;;8.50;97.40;;;;;;4856562;29;20099;-77
2020/12/13 07:25:41;;;;;;;55.45;22.10;;;8.50;97.40;;;;;;4838910;29;20060;-77
2020/12/13 07:28:08;;;;;;;56.70;21.67;;;8.40;97.40;;;;;;4873462;29;20064;-77
2020/12/13 07:30:38;;;;;;;65.57;23.40;;;8.50;97.40;;;;;;4882012;29;20056;-76
2020/12/13 07:33:04;;;;;;;58.92;22.15;;;8.50;97.40;;;;;;4877389;29;20041;-77
2020/12/13 07:35:34;;;;;;;70.95;23.15;;;8.50;97.50;;;;;;4855490;29;20052;-76
2020/12/13 07:38:02;;;;;;;66.65;23.67;;;8.50;97.50;;;;;;4889960;29;20040;-76
2020/12/13 07:40:29;;;;;;;49.85;20.95;;;8.50;97.40;;;;;;4897295;29;20471;-76
2020/12/13 07:43:05;;;;;;;66.95;23.48;;;8.50;97.40;;;;;;4887799;29;20048;-76
2020/12/13 07:45:31;;;;;;;62.85;23.00;;;8.50;97.50;;;;;;4904471;29;20052;-76
2020/12/13 07:48:00;;;;;;;74.35;26.08;;;8.50;97.40;;;;;;4890069;29;20782;-76
2020/12/13 07:50:34;;;;;;;59.60;22.00;;;8.50;97.40;;;;;;4874952;29;20049;-76
2020/12/13 07:53:02;;;;;;;51.28;19.83;;;8.50;97.40;;;;;;4876514;29;20047;-76
2020/12/13 07:55:29;;;;;;;48.45;20.65;;;8.50;97.40;;;;;;4889169;29;20044;-76
2020/12/13 07:57:57;;;;;;;49.33;20.85;;;8.50;97.40;;;;;;4866741;29;20041;-76
2020/12/13 08:00:24;;;;;;;67.72;25.60;;;8.50;97.40;;;;;;4854482;29;20396;-76
2020/12/13 08:02:56;;;;;;;71.88;25.67;;;8.50;97.40;;;;;;4887360;29;20044;-76
2020/12/13 08:05:26;;;;;;;63.65;24.70;;;8.60;97.40;;;;;;4838865;29;20056;-76
2020/12/13 08:08:00;;;;;;;60.97;23.35;;;8.60;97.40;;;;;;4882767;29;20064;-76
2020/12/13 08:10:30;;;;;;;71.60;29.23;;;8.60;97.50;;;;;;4878317;29;20052;-76
2020/12/13 08:12:57;;;;;;;57.28;25.13;;;8.60;97.40;;;;;;4871913;29;20041;-76
2020/12/13 08:15:24;;;;;;;55.72;24.63;;;8.60;97.40;;;;;;4830667;29;20044;-76
2020/12/13 08:18:06;;;;;;;57.08;23.98;;;8.60;97.40;;;;;;4842065;29;20500;-76
2020/12/13 08:20:38;;;;;;;42.03;20.73;;;8.60;97.40;;;;;;4852419;29;20045;-76
2020/12/13 08:23:07;;;;;;;59.08;23.35;;;8.60;97.40;;;;;;4874720;29;20052;-76
2020/12/13 08:25:37;;;;;;;48.20;22.38;;;8.60;97.40;;;;;;4872823;29;20056;-76
2020/12/13 08:28:06;;;;;;;49.80;21.95;;;8.60;97.40;;;;;;4882187;29;20045;-76
2020/12/13 08:30:34;;;;;;;49.47;24.10;;;8.60;97.40;;;;;;4863093;29;20051;-76
2020/12/13 08:33:01;;;;;;;51.65;22.60;;;8.60;97.40;;;;;;4836785;29;20479;-76
2020/12/13 08:35:28;;;;;;;59.67;27.35;;;8.60;97.40;;;;;;4880411;29;20078;-76
2020/12/13 08:38:00;;;;;;;35.78;19.30;;;8.70;97.40;;;;;;4852602;29;20049;-76
2020/12/13 08:40:45;;;;;;;49.63;25.45;;;8.70;97.40;;;;;;4879256;29;20032;-76
2020/12/13 08:43:19;;;;;;;50.17;23.98;;;8.70;97.40;;;;;;4857199;29;20061;-76
2020/12/13 08:45:53;;;;;;;47.47;22.70;;;8.70;97.40;;;;;;4883362;29;20053;-77
2020/12/13 08:48:25;;;;;;;41.10;21.95;;;8.70;97.40;;;;;;4876428;29;20417;-76
2020/12/13 08:51:09;;;;;;;37.30;21.52;;;8.70;97.40;;;;;;4870685;29;20065;-76
2020/12/13 08:53:35;;;;;;;41.47;21.42;;;8.70;97.40;;;;;;4879203;29;20431;-76
2020/12/13 08:56:07;;;;;;;46.05;24.33;;;8.70;97.40;;;;;;4847761;29;20408;-77
2020/12/13 08:58:57;;;;;;;41.00;22.33;;;8.70;97.40;;;;;;4882315;29;20408;-77
2020/12/13 09:01:29;;;;;;;36.50;21.65;;;8.70;97.40;;;;;;4865902;29;20036;-77
2020/12/13 09:03:56;;;;;;;44.40;22.15;;;8.70;97.30;;;;;;4850813;29;20049;-77
2020/12/13 09:06:31;;;;;;;42.65;24.35;;;8.70;97.30;;;;;;4876949;29;20051;-77
2020/12/13 09:09:13;;;;;;;49.63;24.15;;;8.70;97.30;;;;;;4834861;29;20041;-76
2020/12/13 09:11:41;;;;;;;48.38;25.70;;;8.70;97.30;;;;;;4841388;29;20051;-77
2020/12/13 09:14:08;;;;;;;47.22;25.38;;;8.70;97.30;;;;;;4851537;29;20044;-77
2020/12/13 09:16:36;;;;;;;48.63;24.85;;;8.70;97.30;;;;;;4858416;29;20037;-76
2020/12/13 09:19:07;;;;;;;41.00;22.83;;;8.70;97.30;;;;;;4886282;29;20055;-77
2020/12/13 09:21:43;;;;;;;40.08;22.38;;;8.70;97.30;;;;;;4882785;29;20056;-77
2020/12/13 09:24:10;;;;;;;40.95;21.90;;;8.70;97.30;;;;;;4884959;29;20075;-77
2020/12/13 09:26:37;;;;;;;35.03;20.23;;;8.70;97.50;;;;;;4863507;29;20059;-77
2020/12/13 09:29:03;;;;;;;38.10;19.88;;;8.60;97.30;;;;;;4869348;29;20041;-78
2020/12/13 09:31:30;;;;;;;40.13;21.35;;;8.70;97.30;;;;;;4883064;29;20037;-77
2020/12/13 09:33:57;;;;;;;36.47;21.20;;;8.60;97.30;;;;;;4887814;29;20045;-77
2020/12/13 09:36:23;;;;;;;34.90;19.05;;;8.70;97.30;;;;;;4865596;29;20420;-78
2020/12/13 09:38:50;;;;;;;43.25;22.60;;;8.70;97.30;;;;;;4861429;29;20038;-78
2020/12/13 09:41:21;;;;;;;47.75;24.23;;;8.70;97.30;;;;;;4857455;29;20060;-77
2020/12/13 09:43:49;;;;;;;45.63;22.27;;;8.70;97.20;;;;;;4888090;29;20049;-78
2020/12/13 09:46:19;;;;;;;34.60;19.42;;;8.70;97.20;;;;;;4884220;29;20048;-78
2020/12/13 09:48:46;;;;;;;41.20;21.88;;;8.70;97.30;;;;;;4842485;29;20053;-78
2020/12/13 09:51:17;;;;;;;36.05;21.25;;;8.70;97.30;;;;;;4867843;29;20051;-77
2020/12/13 09:53:45;;;;;;;46.70;23.95;;;8.70;97.30;;;;;;4871085;29;20057;-78
2020/12/13 09:56:18;;;;;;;50.35;25.95;;;8.70;97.30;;;;;;4883673;29;20057;-78
2020/12/13 09:58:46;;;;;;;51.75;28.65;;;8.70;97.20;;;;;;4865220;29;20191;-78
2020/12/13 10:01:14;;;;;;;48.10;26.65;;;8.70;97.20;;;;;;4871112;29;20035;-77
2020/12/13 10:03:45;;;;;;;46.67;26.70;;;8.70;97.20;;;;;;4864344;29;20377;-77
2020/12/13 10:09:02;;;;;;;37.38;21.80;;;8.70;97.20;;;;;;4885812;29;20044;-78
2020/12/13 10:11:30;;;;;;;47.72;25.30;;;8.70;97.20;;;;;;4866440;29;20047;-77
2020/12/13 10:13:58;;;;;;;46.95;25.13;;;8.80;97.20;;;;;;4862760;29;20056;-79
2020/12/13 10:16:25;;;;;;;41.40;23.48;;;8.80;97.20;;;;;;4891551;29;20045;-78
2020/12/13 10:18:53;;;;;;;46.20;27.00;;;8.80;97.20;;;;;;4848469;29;20079;-78
2020/12/13 10:21:24;;;;;;;48.17;26.02;;;8.80;97.10;;;;;;4876129;29;20040;-78
2020/12/13 10:23:51;;;;;;;53.28;27.92;;;8.80;97.10;;;;;;4880513;29;20036;-77
2020/12/13 10:26:21;;;;;;;54.92;28.88;;;8.80;97.10;;;;;;4880461;29;20055;-77
2020/12/13 10:28:47;;;;;;;51.45;29.65;;;8.80;97.10;;;;;;4894517;29;20048;-77
2020/12/13 10:31:14;;;;;;;63.30;33.72;;;8.80;97.10;;;;;;4881668;29;20411;-77
2020/12/13 10:33:41;;;;;;;59.88;33.15;;;8.80;97.00;;;;;;4867683;29;20051;-78
2020/12/13 10:36:08;;;;;;;56.78;33.70;;;8.80;97.00;;;;;;4866638;29;20037;-78
2020/12/13 10:38:35;;;;;;;57.20;34.10;;;8.80;97.30;;;;;;4898881;29;20487;-77
2020/12/13 10:41:04;;;;;;;55.13;30.98;;;8.90;97.10;;;;;;4882956;29;20067;-78
2020/12/13 10:43:31;;;;;;;58.85;34.40;;;8.90;97.10;;;;;;4881945;29;20051;-78
2020/12/13 10:45:58;;;;;;;57.42;32.70;;;8.90;97.00;;;;;;4899793;29;20411;-80
2020/12/13 10:48:24;;;;;;;52.20;31.20;;;8.90;97.00;;;;;;4838729;29;20156;-78
2020/12/13 10:50:51;;;;;;;53.42;30.65;;;9.00;97.00;;;;;;4868633;29;20403;-78
2020/12/13 10:53:17;;;;;;;61.17;31.92;;;9.00;96.90;;;;;;4877615;29;20056;-78
2020/12/13 10:55:44;;;;;;;61.28;33.80;;;9.10;96.90;;;;;;4884207;29;20040;-78
2020/12/13 10:58:10;;;;;;;63.60;35.53;;;9.10;96.90;;;;;;4857694;29;20040;-78
2020/12/13 11:00:37;;;;;;;53.53;33.05;;;9.20;96.80;;;;;;4838529;29;20060;-77
2020/12/13 11:03:03;;;;;;;52.50;32.33;;;9.20;96.80;;;;;;4873934;29;20044;-78
2020/12/13 11:05:30;;;;;;;50.72;31.95;;;9.20;96.80;;;;;;4867843;29;20060;-78
2020/12/13 11:07:56;;;;;;;49.17;30.20;;;9.30;96.80;;;;;;4863556;29;20052;-78
2020/12/13 11:10:23;;;;;;;51.55;31.25;;;9.30;96.70;;;;;;4875442;29;20056;-78
2020/12/13 11:12:49;;;;;;;41.45;28.42;;;9.40;96.70;;;;;;4875691;29;20041;-78
2020/12/13 11:15:16;;;;;;;40.38;26.98;;;9.40;96.60;;;;;;4847256;29;20060;-77
2020/12/13 11:17:43;;;;;;;47.03;29.75;;;9.40;96.60;;;;;;4883360;29;20665;-77
2020/12/13 11:20:09;;;;;;;47.72;31.23;;;9.40;96.50;;;;;;4887198;29;20056;-76
2020/12/13 11:22:36;;;;;;;41.70;28.45;;;9.40;96.40;;;;;;4869160;29;20506;-78
2020/12/13 11:25:03;;;;;;;35.90;25.55;;;9.50;96.40;;;;;;4888321;29;20048;-78
2020/12/13 11:27:29;;;;;;;37.42;26.27;;;9.50;96.50;;;;;;4870983;29;20135;-78
2020/12/13 11:29:56;;;;;;;37.97;26.23;;;9.50;96.70;;;;;;4852734;29;20041;-78
2020/12/13 11:32:26;;;;;;;42.97;26.05;;;9.50;96.30;;;;;;4861167;29;20064;-78
2020/12/13 11:34:54;;;;;;;39.55;25.52;;;9.50;96.30;;;;;;4880361;29;20408;-80
2020/12/13 11:37:20;;;;;;;39.78;26.50;;;9.50;96.30;;;;;;4864277;29;20057;-79
2020/12/13 11:39:47;;;;;;;43.30;25.40;;;9.50;96.30;;;;;;4875194;29;20404;-82
2020/12/13 11:42:15;;;;;;;31.35;20.75;;;9.60;96.30;;;;;;4854904;29;20041;-78
2020/12/13 11:44:42;;;;;;;34.25;23.05;;;9.60;96.30;;;;;;4863190;29;20053;-78
2020/12/13 11:47:08;;;;;;;32.58;22.10;;;9.70;96.30;;;;;;4861901;29;20416;-78
2020/12/13 11:49:35;;;;;;;33.13;22.10;;;9.70;96.20;;;;;;4862821;29;20061;-78
2020/12/13 11:52:01;;;;;;;22.02;16.90;;;9.80;96.20;;;;;;4880906;29;20044;-78
2020/12/13 11:54:28;;;;;;;24.30;17.73;;;9.80;96.10;;;;;;4878419;29;20041;-78
2020/12/13 11:56:57;;;;;;;25.80;16.63;;;9.80;96.30;;;;;;4837909;29;609838;-78
2020/12/13 11:59:25;;;;;;;29.15;17.50;;;9.80;96.00;;;;;;4876525;29;20037;-78
2020/12/13 12:01:51;;;;;;;23.80;15.98;;;9.80;95.90;;;;;;4876311;29;20045;-78
2020/12/13 12:04:17;;;;;;;24.17;13.13;;;9.80;95.70;;;;;;4870113;29;20045;-78
2020/12/13 12:06:45;;;;;;;18.50;10.73;;;9.70;95.40;;;;;;4866249;29;20053;-78
2020/12/13 12:09:13;;;;;;;17.00;11.35;;;9.70;95.40;;;;;;4895817;29;20067;-78
2020/12/13 12:11:40;;;;;;;16.65;9.05;;;9.70;95.50;;;;;;4886156;29;20059;-78
2020/12/13 12:14:11;;;;;;;17.98;8.93;;;9.70;95.50;;;;;;4874809;29;20492;-78
2020/12/13 12:16:42;;;;;;;19.73;8.60;;;9.70;95.30;;;;;;4879677;29;20044;-78
2020/12/13 12:19:11;;;;;;;17.20;8.18;;;9.60;95.20;;;;;;4877138;29;20032;-78
2020/12/13 12:21:52;;;;;;;18.52;8.80;;;9.60;95.30;;;;;;4881214;29;20036;-78
2020/12/13 12:24:20;;;;;;;15.02;7.47;;;9.60;95.30;;;;;;4898468;29;20048;-78
2020/12/13 12:26:51;;;;;;;11.27;6.78;;;9.50;95.30;;;;;;4875134;29;20079;-78
2020/12/13 12:29:21;;;;;;;15.27;7.45;;;9.50;95.30;;;;;;4879870;29;20056;-78
2020/12/13 12:31:49;;;;;;;16.75;7.25;;;9.40;95.40;;;;;;4901860;29;20047;-78
2020/12/13 12:34:16;;;;;;;15.50;7.47;;;9.40;95.30;;;;;;4884903;29;20408;-78
2020/12/13 12:36:42;;;;;;;17.13;7.18;;;9.40;95.10;;;;;;4883915;29;20043;-78
2020/12/13 12:39:09;;;;;;;13.15;6.32;;;9.30;95.10;;;;;;4873200;29;20399;-79
2020/12/13 12:41:35;;;;;;;10.20;5.22;;;9.30;95.20;;;;;;4889016;29;20075;-78
2020/12/13 12:44:02;;;;;;;15.73;6.10;;;9.20;95.20;;;;;;4874918;29;20044;-78
2020/12/13 12:46:29;;;;;;;11.75;6.50;;;9.10;95.10;;;;;;4871261;29;20036;-78
2020/12/13 12:48:55;;;;;;;8.55;5.45;;;9.00;95.10;;;;;;4877006;29;20056;-78
2020/12/13 12:51:27;;;;;;;8.95;4.93;;;8.90;95.20;;;;;;4884907;29;20068;-78
2020/12/13 12:53:55;;;;;;;10.60;5.20;;;8.90;95.20;;;;;;4881786;29;20040;-78